Terminal Aerodrome Forecast
Issued by NWS

Home | Current Version | Previous Version | Text Only | Print | Product List | Glossary On
Versions: 1 2 3 4 5 6 7 8 9 10 11 12 13 14 15 16 17 18 19 20 21 22 23 24
000
FTUS43 KDLH 190537
TAFHYR
TAF
KHYR 190537Z 1906/2006 00000KT P6SM SCT110 BKN150
     FM190900 00000KT 6SM BR SCT150
      TEMPO 1911/1914 2SM BR
     FM191500 13003KT P6SM BKN150
     FM192300 13005KT P6SM SCT150 BKN250=

USA.gov is the U.S. government's official web portal to all federal, state and local government web resources and services.